Terminal Aerodrome Forecast
Issued by NWS Houston/Galveston, TX

Home | Current Version | Previous Version | Text Only | Print | Product List | Glossary On
Versions: 1 2 3 4 5 6 7 8 9 10 11 12 13 14 15 16 17 18 19 20 21 22 23 24 25 26 27 28 29 30 31 32 33 34 35 36 37
000
FTUS44 KHGX 281741
TAFCLL
TAF
KCLL 281741Z 2818/0118 VRB03KT P6SM OVC029
     FM282000 04008KT P6SM VCSH BKN030 BKN070
     FM010300 05008KT 6SM BR VCSH BKN007 OVC015
     FM010600 04005KT 4SM BR VCSH OVC007
     FM011500 03007KT 6SM BR OVC007=

USA.gov is the U.S. government's official web portal to all federal, state and local government web resources and services.